sensor_id;sensor_type;location;lat;lon;timestamp;P1;durP1;ratioP1;P2;durP2;ratioP2
32214;SDS011;18708;53.124;23.190;2023-05-07T00:01:06;2.22;;;1.67;;
32214;SDS011;18708;53.124;23.190;2023-05-07T00:03:31;2.83;;;1.88;;
32214;SDS011;18708;53.124;23.190;2023-05-07T00:05:58;3.25;;;1.30;;
32214;SDS011;18708;53.124;23.190;2023-05-07T00:08:24;1.73;;;1.42;;
32214;SDS011;18708;53.124;23.190;2023-05-07T00:10:49;3.13;;;1.60;;
32214;SDS011;18708;53.124;23.190;2023-05-07T00:13:15;2.47;;;1.50;;
32214;SDS011;18708;53.124;23.190;2023-05-07T00:15:41;3.13;;;1.73;;
32214;SDS011;18708;53.124;23.190;2023-05-07T00:18:06;2.42;;;1.73;;
32214;SDS011;18708;53.124;23.190;2023-05-07T00:20:32;3.22;;;1.80;;
32214;SDS011;18708;53.124;23.190;2023-05-07T00:22:58;1.40;;;1.23;;
32214;SDS011;18708;53.124;23.190;2023-05-07T00:25:23;3.92;;;1.75;;
32214;SDS011;18708;53.124;23.190;2023-05-07T00:27:49;2.13;;;1.50;;
32214;SDS011;18708;53.124;23.190;2023-05-07T00:30:15;2.35;;;1.63;;
32214;SDS011;18708;53.124;23.190;2023-05-07T00:32:40;2.20;;;1.70;;
32214;SDS011;18708;53.124;23.190;2023-05-07T00:35:06;2.15;;;1.88;;
32214;SDS011;18708;53.124;23.190;2023-05-07T00:37:33;2.47;;;1.67;;
32214;SDS011;18708;53.124;23.190;2023-05-07T00:39:58;4.30;;;2.25;;
32214;SDS011;18708;53.124;23.190;2023-05-07T00:42:24;2.10;;;1.63;;
32214;SDS011;18708;53.124;23.190;2023-05-07T00:44:50;6.03;;;2.60;;
32214;SDS011;18708;53.124;23.190;2023-05-07T00:47:16;5.50;;;2.80;;
32214;SDS011;18708;53.124;23.190;2023-05-07T00:49:42;2.97;;;2.10;;
32214;SDS011;18708;53.124;23.190;2023-05-07T00:52:11;1.60;;;1.40;;
32214;SDS011;18708;53.124;23.190;2023-05-07T00:54:38;2.65;;;1.55;;
32214;SDS011;18708;53.124;23.190;2023-05-07T00:57:05;3.38;;;1.70;;
32214;SDS011;18708;53.124;23.190;2023-05-07T00:59:31;2.13;;;1.60;;
32214;SDS011;18708;53.124;23.190;2023-05-07T01:01:58;3.42;;;1.90;;
32214;SDS011;18708;53.124;23.190;2023-05-07T01:04:23;2.47;;;1.50;;
32214;SDS011;18708;53.124;23.190;2023-05-07T01:06:50;2.00;;;1.75;;
32214;SDS011;18708;53.124;23.190;2023-05-07T01:09:17;2.28;;;1.63;;
32214;SDS011;18708;53.124;23.190;2023-05-07T01:11:44;3.53;;;1.60;;
32214;SDS011;18708;53.124;23.190;2023-05-07T01:14:11;2.90;;;1.40;;
32214;SDS011;18708;53.124;23.190;2023-05-07T01:16:37;1.50;;;1.38;;
32214;SDS011;18708;53.124;23.190;2023-05-07T01:19:03;3.30;;;1.65;;
32214;SDS011;18708;53.124;23.190;2023-05-07T01:21:28;1.65;;;1.42;;
32214;SDS011;18708;53.124;23.190;2023-05-07T01:23:59;3.20;;;1.70;;
32214;SDS011;18708;53.124;23.190;2023-05-07T01:26:25;2.85;;;1.52;;
32214;SDS011;18708;53.124;23.190;2023-05-07T01:28:50;3.30;;;1.42;;
32214;SDS011;18708;53.124;23.190;2023-05-07T01:31:16;3.08;;;1.65;;
32214;SDS011;18708;53.124;23.190;2023-05-07T01:33:42;1.80;;;1.70;;
32214;SDS011;18708;53.124;23.190;2023-05-07T01:36:11;2.75;;;1.60;;
32214;SDS011;18708;53.124;23.190;2023-05-07T01:38:37;2.95;;;2.00;;
32214;SDS011;18708;53.124;23.190;2023-05-07T01:41:05;4.15;;;1.30;;
32214;SDS011;18708;53.124;23.190;2023-05-07T01:43:31;3.78;;;1.90;;
32214;SDS011;18708;53.124;23.190;2023-05-07T01:45:57;3.90;;;1.55;;
32214;SDS011;18708;53.124;23.190;2023-05-07T01:48:24;1.63;;;1.45;;
32214;SDS011;18708;53.124;23.190;2023-05-07T01:50:50;3.92;;;1.60;;
32214;SDS011;18708;53.124;23.190;2023-05-07T01:53:16;2.25;;;1.58;;
32214;SDS011;18708;53.124;23.190;2023-05-07T01:55:42;2.88;;;2.08;;
32214;SDS011;18708;53.124;23.190;2023-05-07T01:58:08;2.67;;;1.50;;
32214;SDS011;18708;53.124;23.190;2023-05-07T02:00:34;2.53;;;1.38;;
32214;SDS011;18708;53.124;23.190;2023-05-07T02:02:59;2.55;;;1.60;;
32214;SDS011;18708;53.124;23.190;2023-05-07T02:05:25;1.92;;;1.55;;
32214;SDS011;18708;53.124;23.190;2023-05-07T02:07:50;2.90;;;1.95;;
32214;SDS011;18708;53.124;23.190;2023-05-07T02:10:16;2.33;;;1.65;;
32214;SDS011;18708;53.124;23.190;2023-05-07T02:12:42;3.33;;;2.00;;
32214;SDS011;18708;53.124;23.190;2023-05-07T02:15:07;3.45;;;2.00;;
32214;SDS011;18708;53.124;23.190;2023-05-07T02:17:33;2.70;;;2.08;;
32214;SDS011;18708;53.124;23.190;2023-05-07T02:20:00;2.45;;;1.85;;
32214;SDS011;18708;53.124;23.190;2023-05-07T02:22:25;4.53;;;2.13;;
32214;SDS011;18708;53.124;23.190;2023-05-07T02:24:51;2.80;;;1.92;;
32214;SDS011;18708;53.124;23.190;2023-05-07T02:27:17;4.70;;;2.00;;
32214;SDS011;18708;53.124;23.190;2023-05-07T02:29:42;2.75;;;1.73;;
32214;SDS011;18708;53.124;23.190;2023-05-07T02:32:08;2.10;;;1.90;;
32214;SDS011;18708;53.124;23.190;2023-05-07T02:34:34;3.72;;;1.83;;
32214;SDS011;18708;53.124;23.190;2023-05-07T02:36:59;3.17;;;2.03;;
32214;SDS011;18708;53.124;23.190;2023-05-07T02:39:25;2.42;;;1.63;;
32214;SDS011;18708;53.124;23.190;2023-05-07T02:41:51;1.75;;;1.50;;
32214;SDS011;18708;53.124;23.190;2023-05-07T02:44:16;3.40;;;2.28;;
32214;SDS011;18708;53.124;23.190;2023-05-07T02:46:42;1.60;;;1.48;;
32214;SDS011;18708;53.124;23.190;2023-05-07T02:49:07;3.38;;;1.90;;
32214;SDS011;18708;53.124;23.190;2023-05-07T02:51:33;1.95;;;1.60;;
32214;SDS011;18708;53.124;23.190;2023-05-07T02:53:59;3.45;;;1.65;;
32214;SDS011;18708;53.124;23.190;2023-05-07T02:56:26;1.98;;;1.88;;
32214;SDS011;18708;53.124;23.190;2023-05-07T02:58:52;2.40;;;1.63;;
32214;SDS011;18708;53.124;23.190;2023-05-07T03:01:18;2.00;;;1.52;;
32214;SDS011;18708;53.124;23.190;2023-05-07T03:03:43;5.55;;;2.15;;
32214;SDS011;18708;53.124;23.190;2023-05-07T03:06:09;3.30;;;2.13;;
32214;SDS011;18708;53.124;23.190;2023-05-07T03:08:35;2.08;;;1.75;;
32214;SDS011;18708;53.124;23.190;2023-05-07T03:11:01;2.58;;;1.73;;
32214;SDS011;18708;53.124;23.190;2023-05-07T03:13:27;2.72;;;1.88;;
32214;SDS011;18708;53.124;23.190;2023-05-07T03:15:53;2.55;;;2.00;;
32214;SDS011;18708;53.124;23.190;2023-05-07T03:18:19;3.30;;;1.95;;
32214;SDS011;18708;53.124;23.190;2023-05-07T03:20:44;2.38;;;1.65;;
32214;SDS011;18708;53.124;23.190;2023-05-07T03:23:10;2.92;;;1.60;;
32214;SDS011;18708;53.124;23.190;2023-05-07T03:25:35;2.92;;;1.73;;
32214;SDS011;18708;53.124;23.190;2023-05-07T03:28:01;2.20;;;1.80;;
32214;SDS011;18708;53.124;23.190;2023-05-07T03:30:27;3.42;;;2.22;;
32214;SDS011;18708;53.124;23.190;2023-05-07T03:32:52;2.75;;;1.70;;
32214;SDS011;18708;53.124;23.190;2023-05-07T03:35:18;5.50;;;1.70;;
32214;SDS011;18708;53.124;23.190;2023-05-07T03:37:44;3.00;;;1.60;;
32214;SDS011;18708;53.124;23.190;2023-05-07T03:40:09;1.92;;;1.73;;
32214;SDS011;18708;53.124;23.190;2023-05-07T03:42:37;1.92;;;1.73;;
32214;SDS011;18708;53.124;23.190;2023-05-07T03:45:03;1.83;;;1.73;;
32214;SDS011;18708;53.124;23.190;2023-05-07T03:47:28;2.40;;;1.70;;
32214;SDS011;18708;53.124;23.190;2023-05-07T03:49:55;3.00;;;1.70;;
32214;SDS011;18708;53.124;23.190;2023-05-07T03:52:20;1.80;;;1.60;;
32214;SDS011;18708;53.124;23.190;2023-05-07T03:54:50;2.55;;;1.50;;
32214;SDS011;18708;53.124;23.190;2023-05-07T03:57:17;2.75;;;1.67;;
32214;SDS011;18708;53.124;23.190;2023-05-07T03:59:43;2.65;;;1.67;;
32214;SDS011;18708;53.124;23.190;2023-05-07T04:02:08;2.47;;;1.58;;
32214;SDS011;18708;53.124;23.190;2023-05-07T04:04:34;2.95;;;1.70;;
32214;SDS011;18708;53.124;23.190;2023-05-07T04:07:00;1.88;;;1.77;;
32214;SDS011;18708;53.124;23.190;2023-05-07T04:09:25;2.17;;;1.58;;
32214;SDS011;18708;53.124;23.190;2023-05-07T04:11:51;2.88;;;1.75;;
32214;SDS011;18708;53.124;23.190;2023-05-07T04:14:17;3.40;;;1.98;;
32214;SDS011;18708;53.124;23.190;2023-05-07T04:16:42;2.58;;;1.85;;
32214;SDS011;18708;53.124;23.190;2023-05-07T04:19:08;3.35;;;1.65;;
32214;SDS011;18708;53.124;23.190;2023-05-07T04:21:34;2.28;;;1.60;;
32214;SDS011;18708;53.124;23.190;2023-05-07T04:23:59;1.80;;;1.70;;
32214;SDS011;18708;53.124;23.190;2023-05-07T04:26:28;3.35;;;1.85;;
32214;SDS011;18708;53.124;23.190;2023-05-07T04:28:54;2.38;;;1.80;;
32214;SDS011;18708;53.124;23.190;2023-05-07T04:31:20;2.10;;;1.50;;
32214;SDS011;18708;53.124;23.190;2023-05-07T04:33:46;2.20;;;2.00;;
32214;SDS011;18708;53.124;23.190;2023-05-07T04:36:11;4.03;;;2.00;;
32214;SDS011;18708;53.124;23.190;2023-05-07T04:38:37;2.72;;;2.00;;
32214;SDS011;18708;53.124;23.190;2023-05-07T04:41:04;2.22;;;1.83;;
32214;SDS011;18708;53.124;23.190;2023-05-07T04:43:31;4.78;;;2.50;;
32214;SDS011;18708;53.124;23.190;2023-05-07T04:45:57;3.88;;;2.03;;
32214;SDS011;18708;53.124;23.190;2023-05-07T04:48:23;1.88;;;1.73;;
32214;SDS011;18708;53.124;23.190;2023-05-07T04:50:49;3.72;;;2.25;;
32214;SDS011;18708;53.124;23.190;2023-05-07T04:53:16;6.95;;;2.20;;
32214;SDS011;18708;53.124;23.190;2023-05-07T04:55:42;3.17;;;2.33;;
32214;SDS011;18708;53.124;23.190;2023-05-07T04:58:08;3.67;;;1.90;;
32214;SDS011;18708;53.124;23.190;2023-05-07T05:00:34;4.00;;;2.00;;
32214;SDS011;18708;53.124;23.190;2023-05-07T05:03:00;1.98;;;1.88;;
32214;SDS011;18708;53.124;23.190;2023-05-07T05:05:26;2.53;;;1.90;;
32214;SDS011;18708;53.124;23.190;2023-05-07T05:07:52;2.72;;;2.20;;
32214;SDS011;18708;53.124;23.190;2023-05-07T05:10:18;4.18;;;2.40;;
32214;SDS011;18708;53.124;23.190;2023-05-07T05:12:43;2.70;;;2.17;;
32214;SDS011;18708;53.124;23.190;2023-05-07T05:15:10;3.28;;;1.70;;
32214;SDS011;18708;53.124;23.190;2023-05-07T05:17:37;2.58;;;1.95;;
32214;SDS011;18708;53.124;23.190;2023-05-07T05:20:03;2.25;;;1.77;;
32214;SDS011;18708;53.124;23.190;2023-05-07T05:22:29;3.33;;;1.80;;
32214;SDS011;18708;53.124;23.190;2023-05-07T05:24:56;2.17;;;1.50;;
32214;SDS011;18708;53.124;23.190;2023-05-07T05:27:22;2.20;;;1.75;;
32214;SDS011;18708;53.124;23.190;2023-05-07T05:29:48;2.33;;;1.70;;
32214;SDS011;18708;53.124;23.190;2023-05-07T05:32:13;2.75;;;1.80;;
32214;SDS011;18708;53.124;23.190;2023-05-07T05:34:39;3.75;;;1.73;;
32214;SDS011;18708;53.124;23.190;2023-05-07T05:37:05;1.70;;;1.55;;
32214;SDS011;18708;53.124;23.190;2023-05-07T05:39:31;3.30;;;1.88;;
32214;SDS011;18708;53.124;23.190;2023-05-07T05:41:56;4.32;;;1.90;;
32214;SDS011;18708;53.124;23.190;2023-05-07T05:44:22;3.33;;;1.70;;
32214;SDS011;18708;53.124;23.190;2023-05-07T05:46:47;1.55;;;1.45;;
32214;SDS011;18708;53.124;23.190;2023-05-07T05:49:14;3.17;;;1.60;;
32214;SDS011;18708;53.124;23.190;2023-05-07T05:51:40;3.88;;;1.88;;
32214;SDS011;18708;53.124;23.190;2023-05-07T05:54:06;2.40;;;1.80;;
32214;SDS011;18708;53.124;23.190;2023-05-07T05:56:32;2.60;;;1.70;;
32214;SDS011;18708;53.124;23.190;2023-05-07T05:58:58;1.77;;;1.52;;
32214;SDS011;18708;53.124;23.190;2023-05-07T06:01:23;3.47;;;1.73;;
32214;SDS011;18708;53.124;23.190;2023-05-07T06:03:49;1.80;;;1.70;;
32214;SDS011;18708;53.124;23.190;2023-05-07T06:06:15;2.30;;;1.70;;
32214;SDS011;18708;53.124;23.190;2023-05-07T06:08:41;2.35;;;1.60;;
32214;SDS011;18708;53.124;23.190;2023-05-07T06:11:07;2.28;;;1.70;;
32214;SDS011;18708;53.124;23.190;2023-05-07T06:13:32;3.80;;;1.75;;
32214;SDS011;18708;53.124;23.190;2023-05-07T06:15:58;2.17;;;1.60;;
32214;SDS011;18708;53.124;23.190;2023-05-07T06:18:24;1.95;;;1.63;;
32214;SDS011;18708;53.124;23.190;2023-05-07T06:20:50;2.72;;;1.80;;
32214;SDS011;18708;53.124;23.190;2023-05-07T06:23:16;2.67;;;2.05;;
32214;SDS011;18708;53.124;23.190;2023-05-07T06:25:42;3.75;;;2.15;;
32214;SDS011;18708;53.124;23.190;2023-05-07T06:28:12;5.32;;;1.90;;
32214;SDS011;18708;53.124;23.190;2023-05-07T06:30:38;1.83;;;1.60;;
32214;SDS011;18708;53.124;23.190;2023-05-07T06:33:05;3.67;;;1.95;;
32214;SDS011;18708;53.124;23.190;2023-05-07T06:35:30;2.50;;;1.90;;
32214;SDS011;18708;53.124;23.190;2023-05-07T06:37:56;4.55;;;1.98;;
32214;SDS011;18708;53.124;23.190;2023-05-07T06:40:22;2.08;;;1.50;;
32214;SDS011;18708;53.124;23.190;2023-05-07T06:42:47;4.15;;;1.77;;
32214;SDS011;18708;53.124;23.190;2023-05-07T06:45:13;1.58;;;1.48;;
32214;SDS011;18708;53.124;23.190;2023-05-07T06:47:39;2.17;;;1.42;;
32214;SDS011;18708;53.124;23.190;2023-05-07T06:50:05;2.53;;;1.90;;
32214;SDS011;18708;53.124;23.190;2023-05-07T06:52:31;2.08;;;1.73;;
32214;SDS011;18708;53.124;23.190;2023-05-07T06:54:57;3.50;;;1.83;;
32214;SDS011;18708;53.124;23.190;2023-05-07T06:57:23;2.55;;;1.83;;
32214;SDS011;18708;53.124;23.190;2023-05-07T06:59:50;2.25;;;1.48;;
32214;SDS011;18708;53.124;23.190;2023-05-07T07:02:16;3.38;;;1.67;;
32214;SDS011;18708;53.124;23.190;2023-05-07T07:04:42;1.63;;;1.25;;
32214;SDS011;18708;53.124;23.190;2023-05-07T07:07:10;3.05;;;1.45;;
32214;SDS011;18708;53.124;23.190;2023-05-07T07:09:35;1.98;;;1.63;;
32214;SDS011;18708;53.124;23.190;2023-05-07T07:12:01;5.72;;;2.42;;
32214;SDS011;18708;53.124;23.190;2023-05-07T07:14:27;2.33;;;2.13;;
32214;SDS011;18708;53.124;23.190;2023-05-07T07:16:52;2.45;;;1.90;;
32214;SDS011;18708;53.124;23.190;2023-05-07T07:19:18;2.92;;;1.67;;
32214;SDS011;18708;53.124;23.190;2023-05-07T07:21:45;2.92;;;1.73;;
32214;SDS011;18708;53.124;23.190;2023-05-07T07:24:13;2.63;;;1.77;;
32214;SDS011;18708;53.124;23.190;2023-05-07T07:26:44;2.35;;;1.73;;
32214;SDS011;18708;53.124;23.190;2023-05-07T07:29:10;3.38;;;1.70;;
32214;SDS011;18708;53.124;23.190;2023-05-07T07:31:35;2.50;;;1.70;;
32214;SDS011;18708;53.124;23.190;2023-05-07T07:34:01;3.03;;;1.88;;
32214;SDS011;18708;53.124;23.190;2023-05-07T07:36:27;8.93;;;4.22;;
32214;SDS011;18708;53.124;23.190;2023-05-07T07:38:53;22.33;;;12.05;;
32214;SDS011;18708;53.124;23.190;2023-05-07T07:41:18;6.70;;;2.78;;
32214;SDS011;18708;53.124;23.190;2023-05-07T07:43:44;8.40;;;2.65;;
32214;SDS011;18708;53.124;23.190;2023-05-07T07:46:11;15.60;;;7.63;;
32214;SDS011;18708;53.124;23.190;2023-05-07T07:48:37;20.27;;;5.85;;
32214;SDS011;18708;53.124;23.190;2023-05-07T07:51:03;14.85;;;4.50;;
32214;SDS011;18708;53.124;23.190;2023-05-07T07:53:29;14.30;;;4.28;;
32214;SDS011;18708;53.124;23.190;2023-05-07T07:55:55;14.70;;;3.80;;
32214;SDS011;18708;53.124;23.190;2023-05-07T07:58:21;3.05;;;1.60;;
32214;SDS011;18708;53.124;23.190;2023-05-07T08:00:47;6.85;;;2.80;;
32214;SDS011;18708;53.124;23.190;2023-05-07T08:03:13;12.43;;;4.28;;
32214;SDS011;18708;53.124;23.190;2023-05-07T08:05:41;14.23;;;4.38;;
32214;SDS011;18708;53.124;23.190;2023-05-07T08:08:09;8.23;;;3.40;;
32214;SDS011;18708;53.124;23.190;2023-05-07T08:10:35;3.60;;;2.15;;
32214;SDS011;18708;53.124;23.190;2023-05-07T08:13:03;3.33;;;1.95;;
32214;SDS011;18708;53.124;23.190;2023-05-07T08:15:29;2.03;;;1.50;;
32214;SDS011;18708;53.124;23.190;2023-05-07T08:17:55;8.32;;;3.85;;
32214;SDS011;18708;53.124;23.190;2023-05-07T08:20:22;3.83;;;2.55;;
32214;SDS011;18708;53.124;23.190;2023-05-07T08:22:48;4.13;;;2.65;;
32214;SDS011;18708;53.124;23.190;2023-05-07T08:25:14;5.85;;;3.22;;
32214;SDS011;18708;53.124;23.190;2023-05-07T08:27:40;7.43;;;2.90;;
32214;SDS011;18708;53.124;23.190;2023-05-07T08:30:06;4.65;;;2.03;;
32214;SDS011;18708;53.124;23.190;2023-05-07T08:32:32;3.95;;;1.92;;
32214;SDS011;18708;53.124;23.190;2023-05-07T08:35:00;2.25;;;1.70;;
32214;SDS011;18708;53.124;23.190;2023-05-07T08:37:25;2.30;;;1.83;;
32214;SDS011;18708;53.124;23.190;2023-05-07T08:39:51;2.97;;;2.00;;
32214;SDS011;18708;53.124;23.190;2023-05-07T08:42:17;1.80;;;1.38;;
32214;SDS011;18708;53.124;23.190;2023-05-07T08:44:44;2.63;;;1.63;;
32214;SDS011;18708;53.124;23.190;2023-05-07T08:47:13;1.98;;;1.40;;
32214;SDS011;18708;53.124;23.190;2023-05-07T08:49:39;3.97;;;1.90;;
32214;SDS011;18708;53.124;23.190;2023-05-07T08:52:05;3.05;;;1.52;;
32214;SDS011;18708;53.124;23.190;2023-05-07T08:54:31;4.85;;;2.30;;
32214;SDS011;18708;53.124;23.190;2023-05-07T08:56:57;4.88;;;2.15;;
32214;SDS011;18708;53.124;23.190;2023-05-07T08:59:25;2.45;;;1.40;;
32214;SDS011;18708;53.124;23.190;2023-05-07T09:01:51;2.25;;;1.58;;
32214;SDS011;18708;53.124;23.190;2023-05-07T09:04:17;2.15;;;1.70;;
32214;SDS011;18708;53.124;23.190;2023-05-07T09:06:43;2.08;;;1.42;;
32214;SDS011;18708;53.124;23.190;2023-05-07T09:09:08;2.63;;;1.67;;
32214;SDS011;18708;53.124;23.190;2023-05-07T09:11:34;1.92;;;1.35;;
32214;SDS011;18708;53.124;23.190;2023-05-07T09:14:00;1.67;;;1.30;;
32214;SDS011;18708;53.124;23.190;2023-05-07T09:16:27;3.15;;;1.75;;
32214;SDS011;18708;53.124;23.190;2023-05-07T09:18:57;3.10;;;1.63;;
32214;SDS011;18708;53.124;23.190;2023-05-07T09:21:25;3.65;;;1.65;;
32214;SDS011;18708;53.124;23.190;2023-05-07T09:23:52;2.20;;;2.00;;
32214;SDS011;18708;53.124;23.190;2023-05-07T09:26:23;2.47;;;1.75;;
32214;SDS011;18708;53.124;23.190;2023-05-07T09:28:53;2.92;;;1.40;;
32214;SDS011;18708;53.124;23.190;2023-05-07T09:31:18;3.13;;;1.30;;
32214;SDS011;18708;53.124;23.190;2023-05-07T09:33:44;2.30;;;1.38;;
32214;SDS011;18708;53.124;23.190;2023-05-07T09:36:10;2.63;;;1.40;;
32214;SDS011;18708;53.124;23.190;2023-05-07T09:38:38;2.92;;;1.45;;
32214;SDS011;18708;53.124;23.190;2023-05-07T09:41:06;2.40;;;1.70;;
32214;SDS011;18708;53.124;23.190;2023-05-07T09:43:35;1.42;;;1.33;;
32214;SDS011;18708;53.124;23.190;2023-05-07T09:46:03;2.65;;;1.52;;
32214;SDS011;18708;53.124;23.190;2023-05-07T09:48:39;5.47;;;1.85;;
32214;SDS011;18708;53.124;23.190;2023-05-07T09:51:09;2.00;;;1.60;;
32214;SDS011;18708;53.124;23.190;2023-05-07T09:53:59;3.08;;;1.23;;
32214;SDS011;18708;53.124;23.190;2023-05-07T09:56:29;1.67;;;1.13;;
32214;SDS011;18708;53.124;23.190;2023-05-07T09:58:59;2.10;;;1.20;;
32214;SDS011;18708;53.124;23.190;2023-05-07T10:01:29;2.08;;;1.45;;
32214;SDS011;18708;53.124;23.190;2023-05-07T10:03:56;1.33;;;1.13;;
32214;SDS011;18708;53.124;23.190;2023-05-07T10:06:24;1.58;;;1.20;;
32214;SDS011;18708;53.124;23.190;2023-05-07T10:08:50;2.20;;;1.45;;
32214;SDS011;18708;53.124;23.190;2023-05-07T10:11:18;1.50;;;1.00;;
32214;SDS011;18708;53.124;23.190;2023-05-07T10:13:44;1.60;;;1.40;;
32214;SDS011;18708;53.124;23.190;2023-05-07T10:16:12;1.73;;;1.30;;
32214;SDS011;18708;53.124;23.190;2023-05-07T10:18:40;1.73;;;1.30;;
32214;SDS011;18708;53.124;23.190;2023-05-07T10:21:39;4.35;;;1.45;;
32214;SDS011;18708;53.124;23.190;2023-05-07T10:24:17;2.05;;;1.45;;
32214;SDS011;18708;53.124;23.190;2023-05-07T10:27:07;2.45;;;1.45;;
32214;SDS011;18708;53.124;23.190;2023-05-07T10:29:45;2.58;;;1.38;;
32214;SDS011;18708;53.124;23.190;2023-05-07T10:34:58;2.88;;;1.73;;
32214;SDS011;18708;53.124;23.190;2023-05-07T10:37:28;6.43;;;1.85;;
32214;SDS011;18708;53.124;23.190;2023-05-07T10:39:55;4.40;;;1.40;;
32214;SDS011;18708;53.124;23.190;2023-05-07T10:42:22;1.73;;;1.33;;
32214;SDS011;18708;53.124;23.190;2023-05-07T10:44:47;2.03;;;1.20;;
32214;SDS011;18708;53.124;23.190;2023-05-07T10:47:14;4.43;;;1.48;;
32214;SDS011;18708;53.124;23.190;2023-05-07T10:52:19;5.43;;;1.58;;
32214;SDS011;18708;53.124;23.190;2023-05-07T10:54:48;1.70;;;1.60;;
32214;SDS011;18708;53.124;23.190;2023-05-07T10:57:40;7.03;;;1.90;;
32214;SDS011;18708;53.124;23.190;2023-05-07T11:05:24;3.47;;;1.98;;
32214;SDS011;18708;53.124;23.190;2023-05-07T11:07:57;2.78;;;1.50;;
32214;SDS011;18708;53.124;23.190;2023-05-07T11:13:14;2.95;;;1.63;;
32214;SDS011;18708;53.124;23.190;2023-05-07T11:15:41;2.38;;;1.58;;
32214;SDS011;18708;53.124;23.190;2023-05-07T11:18:11;2.25;;;1.40;;
32214;SDS011;18708;53.124;23.190;2023-05-07T11:20:54;2.55;;;1.45;;
32214;SDS011;18708;53.124;23.190;2023-05-07T11:26:03;2.95;;;1.40;;
32214;SDS011;18708;53.124;23.190;2023-05-07T11:28:30;1.83;;;1.30;;
32214;SDS011;18708;53.124;23.190;2023-05-07T11:31:01;2.67;;;1.95;;
32214;SDS011;18708;53.124;23.190;2023-05-07T11:33:30;1.73;;;1.63;;
32214;SDS011;18708;53.124;23.190;2023-05-07T11:35:57;1.63;;;1.33;;
32214;SDS011;18708;53.124;23.190;2023-05-07T11:38:25;4.38;;;1.60;;
32214;SDS011;18708;53.124;23.190;2023-05-07T11:40:51;2.72;;;1.92;;
32214;SDS011;18708;53.124;23.190;2023-05-07T11:43:18;1.75;;;1.50;;
32214;SDS011;18708;53.124;23.190;2023-05-07T11:45:47;2.53;;;2.03;;
32214;SDS011;18708;53.124;23.190;2023-05-07T11:48:14;2.40;;;1.60;;
32214;SDS011;18708;53.124;23.190;2023-05-07T11:50:53;2.13;;;1.60;;
32214;SDS011;18708;53.124;23.190;2023-05-07T11:53:33;2.10;;;1.55;;
32214;SDS011;18708;53.124;23.190;2023-05-07T11:56:11;3.35;;;1.73;;
32214;SDS011;18708;53.124;23.190;2023-05-07T11:58:39;1.65;;;1.50;;
32214;SDS011;18708;53.124;23.190;2023-05-07T12:01:07;2.80;;;1.63;;
32214;SDS011;18708;53.124;23.190;2023-05-07T12:03:36;2.58;;;1.60;;
32214;SDS011;18708;53.124;23.190;2023-05-07T12:06:07;2.03;;;1.25;;
32214;SDS011;18708;53.124;23.190;2023-05-07T12:08:37;6.22;;;1.95;;
32214;SDS011;18708;53.124;23.190;2023-05-07T12:11:09;2.97;;;1.63;;
32214;SDS011;18708;53.124;23.190;2023-05-07T12:13:38;3.05;;;1.83;;
32214;SDS011;18708;53.124;23.190;2023-05-07T12:16:05;4.20;;;1.60;;
32214;SDS011;18708;53.124;23.190;2023-05-07T12:18:35;5.70;;;2.65;;
32214;SDS011;18708;53.124;23.190;2023-05-07T12:21:01;2.58;;;1.52;;
32214;SDS011;18708;53.124;23.190;2023-05-07T12:23:29;4.63;;;1.75;;
32214;SDS011;18708;53.124;23.190;2023-05-07T12:25:55;1.65;;;1.13;;
32214;SDS011;18708;53.124;23.190;2023-05-07T12:28:24;1.30;;;1.15;;
32214;SDS011;18708;53.124;23.190;2023-05-07T12:30:50;1.77;;;1.38;;
32214;SDS011;18708;53.124;23.190;2023-05-07T12:33:17;2.00;;;1.30;;
32214;SDS011;18708;53.124;23.190;2023-05-07T12:35:46;2.13;;;1.52;;
32214;SDS011;18708;53.124;23.190;2023-05-07T12:38:13;1.98;;;1.17;;
32214;SDS011;18708;53.124;23.190;2023-05-07T12:40:47;1.98;;;1.45;;
32214;SDS011;18708;53.124;23.190;2023-05-07T12:43:17;1.92;;;1.65;;
32214;SDS011;18708;53.124;23.190;2023-05-07T12:45:47;2.60;;;1.40;;
32214;SDS011;18708;53.124;23.190;2023-05-07T12:48:15;3.35;;;1.70;;
32214;SDS011;18708;53.124;23.190;2023-05-07T12:50:41;2.28;;;1.67;;
32214;SDS011;18708;53.124;23.190;2023-05-07T12:53:07;3.05;;;1.60;;
32214;SDS011;18708;53.124;23.190;2023-05-07T12:55:41;2.55;;;1.60;;
32214;SDS011;18708;53.124;23.190;2023-05-07T13:00:36;1.80;;;1.25;;
32214;SDS011;18708;53.124;23.190;2023-05-07T13:03:03;1.65;;;1.42;;
32214;SDS011;18708;53.124;23.190;2023-05-07T13:05:29;6.03;;;1.55;;
32214;SDS011;18708;53.124;23.190;2023-05-07T13:07:56;2.58;;;1.35;;
32214;SDS011;18708;53.124;23.190;2023-05-07T13:10:25;2.88;;;1.50;;
32214;SDS011;18708;53.124;23.190;2023-05-07T13:12:51;2.95;;;1.60;;
32214;SDS011;18708;53.124;23.190;2023-05-07T13:15:17;2.25;;;1.23;;
32214;SDS011;18708;53.124;23.190;2023-05-07T13:17:43;5.07;;;1.42;;
32214;SDS011;18708;53.124;23.190;2023-05-07T13:20:09;2.55;;;1.80;;
32214;SDS011;18708;53.124;23.190;2023-05-07T13:22:36;2.13;;;1.67;;
32214;SDS011;18708;53.124;23.190;2023-05-07T13:25:02;1.92;;;1.40;;
32214;SDS011;18708;53.124;23.190;2023-05-07T13:27:28;2.42;;;1.67;;
32214;SDS011;18708;53.124;23.190;2023-05-07T13:29:55;3.15;;;1.63;;
32214;SDS011;18708;53.124;23.190;2023-05-07T13:32:21;1.65;;;1.10;;
32214;SDS011;18708;53.124;23.190;2023-05-07T13:34:47;1.77;;;1.17;;
32214;SDS011;18708;53.124;23.190;2023-05-07T13:37:13;1.50;;;1.35;;
32214;SDS011;18708;53.124;23.190;2023-05-07T13:39:38;2.28;;;1.42;;
32214;SDS011;18708;53.124;23.190;2023-05-07T13:42:06;2.70;;;1.40;;
32214;SDS011;18708;53.124;23.190;2023-05-07T13:44:32;2.78;;;1.95;;
32214;SDS011;18708;53.124;23.190;2023-05-07T13:46:58;2.33;;;1.50;;
32214;SDS011;18708;53.124;23.190;2023-05-07T13:49:23;2.35;;;1.23;;
32214;SDS011;18708;53.124;23.190;2023-05-07T13:51:49;3.03;;;1.50;;
32214;SDS011;18708;53.124;23.190;2023-05-07T13:54:15;1.55;;;1.38;;
32214;SDS011;18708;53.124;23.190;2023-05-07T13:56:41;1.92;;;1.40;;
32214;SDS011;18708;53.124;23.190;2023-05-07T13:59:06;1.13;;;1.02;;
32214;SDS011;18708;53.124;23.190;2023-05-07T14:01:33;2.45;;;1.50;;
32214;SDS011;18708;53.124;23.190;2023-05-07T14:03:59;4.05;;;1.45;;
32214;SDS011;18708;53.124;23.190;2023-05-07T14:06:24;1.80;;;1.50;;
32214;SDS011;18708;53.124;23.190;2023-05-07T14:08:50;1.70;;;1.15;;
32214;SDS011;18708;53.124;23.190;2023-05-07T14:11:16;1.98;;;1.55;;
32214;SDS011;18708;53.124;23.190;2023-05-07T14:13:42;1.70;;;1.30;;
32214;SDS011;18708;53.124;23.190;2023-05-07T14:16:08;2.17;;;1.50;;
32214;SDS011;18708;53.124;23.190;2023-05-07T14:18:33;3.63;;;2.20;;
32214;SDS011;18708;53.124;23.190;2023-05-07T14:21:00;3.38;;;1.30;;
32214;SDS011;18708;53.124;23.190;2023-05-07T14:23:26;1.80;;;1.25;;
32214;SDS011;18708;53.124;23.190;2023-05-07T14:25:52;2.13;;;1.10;;
32214;SDS011;18708;53.124;23.190;2023-05-07T14:28:18;1.70;;;1.30;;
32214;SDS011;18708;53.124;23.190;2023-05-07T14:30:44;2.17;;;1.27;;
32214;SDS011;18708;53.124;23.190;2023-05-07T14:33:10;1.10;;;1.00;;
32214;SDS011;18708;53.124;23.190;2023-05-07T14:35:36;2.28;;;1.13;;
32214;SDS011;18708;53.124;23.190;2023-05-07T14:38:01;1.70;;;1.10;;
32214;SDS011;18708;53.124;23.190;2023-05-07T14:40:27;2.67;;;1.35;;
32214;SDS011;18708;53.124;23.190;2023-05-07T14:42:53;3.63;;;1.67;;
32214;SDS011;18708;53.124;23.190;2023-05-07T14:45:20;2.42;;;2.22;;
32214;SDS011;18708;53.124;23.190;2023-05-07T14:47:46;2.88;;;2.08;;
32214;SDS011;18708;53.124;23.190;2023-05-07T14:50:11;4.05;;;1.83;;